Time;durP1;ratioP1;P1;durP2;ratioP2;P2;SDS_P1;SDS_P2;PMS_P1;PMS_P2;Temp;Humidity;BMP_temperature;BMP_pressure;BME280_temperature;BME280_humidity;BME280_pressure;Samples;Min_cycle;Max_cycle;Signal;HPM_P1;HPM_P2
2022/01/09 00:00:36;;;;;;;6.80;4.22;;;;;;;;;;5075522;28;20052;-71
2022/01/09 00:03:03;;;;;;;7.85;4.03;;;;;;;;;;5075345;28;20051;-72
2022/01/09 00:05:33;;;;;;;7.25;4.03;;;;;;;;;;5075412;28;20041;-77
2022/01/09 00:08:01;;;;;;;6.25;3.70;;;;;;;;;;5075112;28;20120;-71
2022/01/09 00:10:30;;;;;;;10.60;3.97;;;;;;;;;;5075219;28;20037;-72
2022/01/09 00:13:01;;;;;;;9.60;3.85;;;;;;;;;;5075275;28;20040;-72
2022/01/09 00:15:28;;;;;;;6.55;3.55;;;;;;;;;;5057067;28;20048;-77
2022/01/09 00:17:58;;;;;;;7.38;3.50;;;;;;;;;;5075286;28;20128;-76
2022/01/09 00:20:27;;;;;;;9.20;3.80;;;;;;;;;;5075123;28;20036;-71
2022/01/09 00:22:55;;;;;;;7.88;3.60;;;;;;;;;;5074548;28;20084;-76
2022/01/09 00:25:23;;;;;;;6.63;3.67;;;;;;;;;;5075087;28;20047;-71
2022/01/09 00:27:52;;;;;;;6.13;3.55;;;;;;;;;;5074918;28;20115;-73
2022/01/09 00:30:21;;;;;;;7.07;3.85;;;;;;;;;;5074911;28;20059;-71
2022/01/09 00:32:50;;;;;;;7.63;3.20;;;;;;;;;;5074959;28;20060;-76
2022/01/09 00:35:18;;;;;;;7.80;3.33;;;;;;;;;;5074522;28;20039;-76
2022/01/09 00:37:46;;;;;;;10.00;3.30;;;;;;;;;;5074705;28;20411;-72
2022/01/09 00:40:16;;;;;;;12.60;3.03;;;;;;;;;;5074537;28;20060;-76
2022/01/09 00:42:44;;;;;;;6.30;3.17;;;;;;;;;;5074432;28;20124;-71
2022/01/09 00:45:15;;;;;;;7.57;3.03;;;;;;;;;;5074869;28;20133;-77
2022/01/09 00:47:43;;;;;;;9.32;2.90;;;;;;;;;;5074339;28;20048;-72
2022/01/09 00:50:11;;;;;;;6.72;2.75;;;;;;;;;;5074475;28;20041;-72
2022/01/09 00:52:39;;;;;;;4.45;2.42;;;;;;;;;;5073853;28;20470;-71
2022/01/09 00:55:09;;;;;;;4.32;2.67;;;;;;;;;;5074493;28;20037;-77
2022/01/09 00:57:37;;;;;;;3.58;2.58;;;;;;;;;;5074360;28;20044;-72
2022/01/09 01:00:07;;;;;;;6.53;3.15;;;;;;;;;;5073964;28;20037;-77
2022/01/09 01:02:35;;;;;;;6.38;2.88;;;;;;;;;;5074380;28;20544;-77
2022/01/09 01:05:04;;;;;;;5.38;2.90;;;;;;;;;;5074291;28;20055;-76
2022/01/09 01:07:32;;;;;;;4.45;2.85;;;;;;;;;;5074120;28;20400;-76
2022/01/09 01:10:02;;;;;;;5.93;2.60;;;;;;;;;;5056392;28;20582;-77
2022/01/09 01:12:30;;;;;;;4.47;2.72;;;;;;;;;;5074129;28;20036;-77
2022/01/09 01:14:58;;;;;;;5.15;2.90;;;;;;;;;;5073910;28;20055;-71
2022/01/09 01:17:26;;;;;;;7.68;2.88;;;;;;;;;;5073962;28;20119;-72
2022/01/09 01:19:56;;;;;;;4.03;2.35;;;;;;;;;;5073975;28;20048;-76
2022/01/09 01:22:29;;;;;;;4.90;2.55;;;;;;;;;;5073400;28;20124;-77
2022/01/09 01:24:57;;;;;;;7.20;2.72;;;;;;;;;;5073821;28;20059;-76
2022/01/09 01:27:25;;;;;;;6.55;2.63;;;;;;;;;;5073835;28;20483;-75
2022/01/09 01:29:54;;;;;;;5.97;3.05;;;;;;;;;;5073694;28;20044;-76
2022/01/09 01:32:24;;;;;;;5.40;2.85;;;;;;;;;;5073661;28;20051;-71
2022/01/09 01:34:52;;;;;;;6.00;3.60;;;;;;;;;;5073421;28;20411;-73
2022/01/09 01:37:20;;;;;;;4.38;2.90;;;;;;;;;;5073724;28;20555;-72
2022/01/09 01:39:48;;;;;;;6.47;2.70;;;;;;;;;;5073658;28;20041;-76
2022/01/09 01:42:16;;;;;;;5.55;2.63;;;;;;;;;;5055666;28;20128;-71
2022/01/09 01:44:50;;;;;;;4.78;2.53;;;;;;;;;;5073543;28;20036;-76
2022/01/09 01:47:19;;;;;;;3.25;2.58;;;;;;;;;;5073449;28;20051;-72
2022/01/09 01:49:48;;;;;;;3.55;2.53;;;;;;;;;;5073444;28;20040;-76
2022/01/09 01:52:18;;;;;;;2.97;2.20;;;;;;;;;;5073354;28;20068;-77
2022/01/09 01:54:46;;;;;;;5.90;2.60;;;;;;;;;;5073037;28;20115;-77
2022/01/09 01:57:14;;;;;;;5.55;2.10;;;;;;;;;;5073348;28;20546;-76
2022/01/09 01:59:41;;;;;;;5.65;2.53;;;;;;;;;;5072718;28;20044;-71
2022/01/09 02:02:08;;;;;;;5.20;2.42;;;;;;;;;;5073285;28;20040;-73
2022/01/09 02:04:37;;;;;;;5.63;2.38;;;;;;;;;;5072324;28;20048;-76
2022/01/09 02:07:05;;;;;;;2.95;2.20;;;;;;;;;;5073146;28;20044;-71
2022/01/09 02:09:34;;;;;;;5.97;2.60;;;;;;;;;;5073151;28;20040;-72
2022/01/09 02:12:01;;;;;;;7.13;2.38;;;;;;;;;;5072721;28;20483;-76
2022/01/09 02:14:29;;;;;;;5.13;1.75;;;;;;;;;;5073002;28;20040;-71
2022/01/09 02:16:57;;;;;;;5.15;3.10;;;;;;;;;;5055578;28;20047;-72
2022/01/09 02:19:27;;;;;;;5.97;3.33;;;;;;;;;;5073036;28;20040;-71
2022/01/09 02:21:59;;;;;;;6.03;3.85;;;;;;;;;;5054936;28;20052;-72
2022/01/09 02:24:27;;;;;;;6.32;3.35;;;;;;;;;;5072710;28;20439;-72
2022/01/09 02:26:54;;;;;;;7.15;2.58;;;;;;;;;;5072865;28;20049;-76
2022/01/09 02:29:22;;;;;;;5.18;2.03;;;;;;;;;;5072971;28;20044;-71
2022/01/09 02:31:52;;;;;;;2.70;1.73;;;;;;;;;;5072918;28;20425;-72
2022/01/09 02:34:19;;;;;;;5.45;1.85;;;;;;;;;;5054708;28;20041;-76
2022/01/09 02:36:46;;;;;;;4.28;1.95;;;;;;;;;;5055353;28;20032;-72
2022/01/09 02:39:15;;;;;;;3.80;1.67;;;;;;;;;;5072821;28;20044;-76
2022/01/09 02:41:43;;;;;;;4.43;1.88;;;;;;;;;;5072691;28;20052;-71
2022/01/09 02:44:14;;;;;;;2.42;1.73;;;;;;;;;;5072981;28;20127;-72
2022/01/09 02:49:21;;;;;;;4.45;1.92;;;;;;;;;;5072629;28;20545;-76
2022/01/09 02:51:48;;;;;;;2.83;1.73;;;;;;;;;;5072513;28;20127;-77
2022/01/09 02:57:16;;;;;;;6.70;2.25;;;;;;;;;;5039274;28;20132;-76
2022/01/09 02:59:43;;;;;;;5.75;1.90;;;;;;;;;;5072072;28;20056;-76
2022/01/09 03:02:11;;;;;;;3.63;2.00;;;;;;;;;;5072670;28;20036;-77
2022/01/09 03:04:39;;;;;;;4.45;1.75;;;;;;;;;;5072585;28;20058;-77
2022/01/09 03:07:07;;;;;;;3.05;1.90;;;;;;;;;;5072132;28;20087;-76
2022/01/09 03:09:38;;;;;;;4.72;1.85;;;;;;;;;;5072567;28;20044;-72
2022/01/09 03:12:12;;;;;;;2.13;1.50;;;;;;;;;;5072326;28;20495;-77
2022/01/09 03:14:40;;;;;;;3.22;1.83;;;;;;;;;;5072373;28;20029;-76
2022/01/09 03:17:08;;;;;;;3.85;1.60;;;;;;;;;;5076552;28;20037;-76
2022/01/09 03:19:38;;;;;;;3.55;1.80;;;;;;;;;;5076188;28;20055;-77
2022/01/09 03:22:06;;;;;;;3.60;1.70;;;;;;;;;;5075913;28;20052;-72
2022/01/09 03:24:34;;;;;;;3.20;1.75;;;;;;;;;;5076028;28;20047;-72
2022/01/09 03:27:02;;;;;;;3.53;1.75;;;;;;;;;;5076029;28;20045;-76
2022/01/09 03:29:30;;;;;;;4.65;1.83;;;;;;;;;;5076199;28;20498;-73
2022/01/09 03:31:58;;;;;;;3.92;1.75;;;;;;;;;;5075806;28;20045;-71
2022/01/09 03:34:28;;;;;;;3.40;1.70;;;;;;;;;;5076010;28;20068;-71
2022/01/09 03:36:55;;;;;;;4.47;1.88;;;;;;;;;;5075853;28;20037;-71
2022/01/09 03:39:23;;;;;;;3.00;1.50;;;;;;;;;;5075980;28;20045;-77
2022/01/09 03:41:51;;;;;;;8.35;1.88;;;;;;;;;;5076062;28;20044;-72
2022/01/09 03:44:18;;;;;;;2.92;1.77;;;;;;;;;;5075854;28;20079;-76
2022/01/09 03:46:46;;;;;;;2.30;1.52;;;;;;;;;;5057577;28;20044;-72
2022/01/09 03:49:13;;;;;;;3.08;1.63;;;;;;;;;;5075917;28;20459;-76
2022/01/09 03:51:44;;;;;;;2.65;1.10;;;;;;;;;;5041512;28;20040;-76
2022/01/09 03:54:11;;;;;;;2.92;1.90;;;;;;;;;;5075750;28;20051;-76
2022/01/09 03:56:39;;;;;;;4.78;1.80;;;;;;;;;;5075501;28;20060;-75
2022/01/09 03:59:07;;;;;;;3.25;1.80;;;;;;;;;;5075370;28;20047;-72
2022/01/09 04:01:34;;;;;;;4.30;1.58;;;;;;;;;;5075545;28;20058;-77
2022/01/09 04:04:01;;;;;;;5.20;2.10;;;;;;;;;;5075365;28;20064;-77
2022/01/09 04:06:29;;;;;;;3.72;1.60;;;;;;;;;;5075805;28;20465;-77
2022/01/09 04:09:06;;;;;;;2.47;1.60;;;;;;;;;;5075248;28;20055;-72
2022/01/09 04:11:38;;;;;;;4.18;1.60;;;;;;;;;;5075135;28;20047;-71
2022/01/09 04:14:06;;;;;;;3.17;1.60;;;;;;;;;;5075451;28;20115;-76
2022/01/09 04:16:36;;;;;;;6.97;1.83;;;;;;;;;;5075203;28;20051;-72
2022/01/09 04:19:03;;;;;;;3.30;1.80;;;;;;;;;;5075193;28;20067;-75
2022/01/09 04:21:33;;;;;;;3.17;1.77;;;;;;;;;;5075194;28;20522;-77
2022/01/09 04:24:01;;;;;;;6.28;1.98;;;;;;;;;;5074789;28;20411;-77
2022/01/09 04:26:28;;;;;;;2.28;1.58;;;;;;;;;;5074116;28;20518;-76
2022/01/09 04:28:56;;;;;;;3.80;1.98;;;;;;;;;;5074568;28;20045;-71
2022/01/09 04:31:23;;;;;;;2.83;1.73;;;;;;;;;;5074970;28;20055;-71
2022/01/09 04:33:51;;;;;;;5.10;2.38;;;;;;;;;;5074938;28;20535;-77
2022/01/09 04:36:20;;;;;;;5.45;1.95;;;;;;;;;;5057000;28;20070;-76
2022/01/09 04:38:48;;;;;;;3.88;2.05;;;;;;;;;;5074655;28;20108;-72
2022/01/09 04:41:18;;;;;;;4.40;1.83;;;;;;;;;;5074910;28;20037;-71
2022/01/09 04:43:48;;;;;;;8.95;2.15;;;;;;;;;;5074655;28;20191;-76
2022/01/09 04:46:27;;;;;;;5.65;2.42;;;;;;;;;;5074568;28;20417;-75
2022/01/09 04:48:56;;;;;;;3.08;1.80;;;;;;;;;;5074787;28;20455;-71
2022/01/09 04:51:23;;;;;;;3.55;1.98;;;;;;;;;;5074671;28;20119;-76
2022/01/09 04:53:51;;;;;;;3.88;2.00;;;;;;;;;;5074827;28;20424;-76
2022/01/09 04:56:28;;;;;;;5.43;2.08;;;;;;;;;;5056455;28;20488;-76
2022/01/09 04:58:56;;;;;;;3.28;1.58;;;;;;;;;;5074055;28;20036;-76
2022/01/09 05:01:23;;;;;;;3.00;1.88;;;;;;;;;;5074366;28;20573;-76
2022/01/09 05:03:52;;;;;;;3.15;1.77;;;;;;;;;;5074277;28;20036;-71
2022/01/09 05:06:21;;;;;;;3.15;1.85;;;;;;;;;;5074167;28;20446;-72
2022/01/09 05:08:48;;;;;;;6.28;1.90;;;;;;;;;;5074238;28;20032;-72
2022/01/09 05:11:16;;;;;;;6.93;1.88;;;;;;;;;;5073980;28;20048;-76
2022/01/09 05:13:44;;;;;;;3.55;1.95;;;;;;;;;;5074164;28;20036;-77
2022/01/09 05:16:11;;;;;;;7.57;2.28;;;;;;;;;;5056203;28;20048;-76
2022/01/09 05:18:52;;;;;;;4.55;2.00;;;;;;;;;;5073991;28;20033;-71
2022/01/09 05:21:20;;;;;;;2.85;1.40;;;;;;;;;;5073917;28;20040;-72
2022/01/09 05:23:49;;;;;;;4.88;1.67;;;;;;;;;;5073516;28;20048;-72
2022/01/09 05:26:16;;;;;;;6.85;1.50;;;;;;;;;;5074015;28;20041;-71
2022/01/09 05:28:44;;;;;;;2.88;1.70;;;;;;;;;;5056083;28;20403;-75
2022/01/09 05:31:11;;;;;;;4.65;1.63;;;;;;;;;;5055911;28;20040;-71
2022/01/09 05:33:39;;;;;;;4.68;2.13;;;;;;;;;;5073884;28;20040;-77
2022/01/09 05:36:10;;;;;;;5.13;1.67;;;;;;;;;;5073372;28;20032;-75
2022/01/09 05:38:38;;;;;;;7.07;1.42;;;;;;;;;;5073586;28;20427;-75
2022/01/09 05:41:07;;;;;;;2.28;1.58;;;;;;;;;;5073940;28;20045;-76
2022/01/09 05:43:34;;;;;;;6.03;1.73;;;;;;;;;;5073710;28;20666;-71
2022/01/09 05:46:03;;;;;;;4.72;1.60;;;;;;;;;;5073521;28;20055;-76
2022/01/09 05:48:31;;;;;;;4.63;2.22;;;;;;;;;;5073324;28;20562;-76
2022/01/09 05:50:59;;;;;;;3.30;2.28;;;;;;;;;;5073403;28;20050;-72
2022/01/09 05:53:27;;;;;;;6.68;1.95;;;;;;;;;;5073715;28;20047;-72
2022/01/09 05:55:54;;;;;;;4.32;2.10;;;;;;;;;;5073604;28;20539;-76
2022/01/09 05:58:22;;;;;;;2.83;1.60;;;;;;;;;;5073335;28;20041;-75
2022/01/09 06:00:50;;;;;;;4.75;1.88;;;;;;;;;;5073117;28;20122;-77
2022/01/09 06:03:18;;;;;;;5.57;1.90;;;;;;;;;;5073397;28;20036;-71
2022/01/09 06:05:46;;;;;;;4.90;1.67;;;;;;;;;;5073199;28;20067;-76
2022/01/09 06:08:14;;;;;;;2.40;1.65;;;;;;;;;;5073369;28;20451;-77
2022/01/09 06:10:41;;;;;;;3.05;1.40;;;;;;;;;;5073048;28;20049;-72
2022/01/09 06:13:09;;;;;;;1.95;1.58;;;;;;;;;;5055294;28;20040;-71
2022/01/09 06:15:37;;;;;;;3.55;1.40;;;;;;;;;;5055717;28;20131;-76
2022/01/09 06:18:06;;;;;;;5.65;1.88;;;;;;;;;;5073072;28;20092;-72
2022/01/09 06:20:35;;;;;;;3.25;1.73;;;;;;;;;;5073023;28;20127;-76
2022/01/09 06:23:03;;;;;;;3.50;1.63;;;;;;;;;;5072641;28;20057;-71
2022/01/09 06:25:30;;;;;;;3.63;1.75;;;;;;;;;;5072995;28;20119;-71
2022/01/09 06:27:58;;;;;;;3.83;1.27;;;;;;;;;;5072712;28;20037;-71
2022/01/09 06:30:25;;;;;;;4.63;1.52;;;;;;;;;;5072878;28;20057;-76
2022/01/09 06:32:53;;;;;;;4.72;1.70;;;;;;;;;;5072887;28;20055;-72
2022/01/09 06:35:22;;;;;;;4.10;1.80;;;;;;;;;;5072532;28;20116;-76
2022/01/09 06:37:50;;;;;;;4.93;1.65;;;;;;;;;;5072673;28;20072;-77
2022/01/09 06:40:19;;;;;;;4.97;1.50;;;;;;;;;;5072860;28;20047;-77
2022/01/09 06:42:46;;;;;;;4.82;1.83;;;;;;;;;;5072748;28;20127;-77
2022/01/09 06:45:15;;;;;;;2.58;1.30;;;;;;;;;;5072836;28;20048;-77
2022/01/09 06:47:42;;;;;;;4.93;1.55;;;;;;;;;;5072438;28;20067;-77
2022/01/09 06:50:12;;;;;;;4.35;1.60;;;;;;;;;;5073743;28;20127;-76
2022/01/09 06:52:41;;;;;;;1.95;1.60;;;;;;;;;;5076882;28;20107;-73
2022/01/09 06:55:09;;;;;;;7.90;2.30;;;;;;;;;;5076848;28;20041;-76
2022/01/09 06:57:37;;;;;;;6.35;1.48;;;;;;;;;;5076691;28;20040;-71
2022/01/09 07:00:10;;;;;;;4.38;1.40;;;;;;;;;;5076723;28;20040;-77
2022/01/09 07:02:38;;;;;;;2.70;1.60;;;;;;;;;;5076598;28;20045;-76
2022/01/09 07:05:06;;;;;;;5.85;1.60;;;;;;;;;;5076865;28;20048;-77
2022/01/09 07:07:35;;;;;;;5.85;1.75;;;;;;;;;;5076585;28;20044;-77
2022/01/09 07:10:03;;;;;;;3.40;1.58;;;;;;;;;;5076239;28;20064;-72
2022/01/09 07:12:30;;;;;;;4.10;1.50;;;;;;;;;;5076166;28;20036;-76
2022/01/09 07:14:58;;;;;;;5.03;1.50;;;;;;;;;;5076415;28;20068;-72
2022/01/09 07:17:27;;;;;;;5.45;1.75;;;;;;;;;;5076338;28;20037;-76
2022/01/09 07:19:54;;;;;;;7.07;1.50;;;;;;;;;;5076325;28;20041;-76
2022/01/09 07:22:22;;;;;;;8.65;2.08;;;;;;;;;;5076735;28;20044;-71
2022/01/09 07:24:49;;;;;;;3.25;1.58;;;;;;;;;;5075959;28;20401;-71
2022/01/09 07:27:18;;;;;;;4.07;2.00;;;;;;;;;;5058477;28;20044;-71
2022/01/09 07:29:45;;;;;;;6.25;2.50;;;;;;;;;;5058120;28;20134;-75
2022/01/09 07:32:13;;;;;;;3.20;1.98;;;;;;;;;;5075991;28;20039;-77
2022/01/09 07:34:40;;;;;;;3.38;2.20;;;;;;;;;;5075903;28;20506;-77
2022/01/09 07:37:09;;;;;;;3.33;2.15;;;;;;;;;;5075945;28;20120;-72
2022/01/09 07:39:36;;;;;;;6.03;2.70;;;;;;;;;;5075758;28;20499;-77
2022/01/09 07:42:05;;;;;;;4.18;2.45;;;;;;;;;;5075833;28;20051;-76
2022/01/09 07:44:32;;;;;;;6.00;2.25;;;;;;;;;;5076012;28;20087;-77
2022/01/09 07:47:00;;;;;;;4.88;2.40;;;;;;;;;;5075522;28;20130;-73
2022/01/09 07:49:27;;;;;;;7.90;2.50;;;;;;;;;;5075567;28;20033;-71
2022/01/09 07:51:55;;;;;;;3.35;2.17;;;;;;;;;;5058178;28;20040;-77
2022/01/09 07:54:23;;;;;;;2.70;2.15;;;;;;;;;;5075604;28;20119;-77
2022/01/09 07:56:50;;;;;;;3.15;1.63;;;;;;;;;;5075466;28;20037;-72
2022/01/09 07:59:20;;;;;;;5.47;2.00;;;;;;;;;;5075341;28;20037;-71
2022/01/09 08:01:49;;;;;;;4.13;1.95;;;;;;;;;;5075421;28;20056;-76
2022/01/09 08:04:18;;;;;;;5.47;2.15;;;;;;;;;;5057296;28;20049;-71
2022/01/09 08:06:48;;;;;;;6.55;2.38;;;;;;;;;;5075339;28;20115;-75
2022/01/09 08:09:16;;;;;;;11.15;2.80;;;;;;;;;;5057189;28;20071;-76
2022/01/09 08:11:43;;;;;;;5.07;3.20;;;;;;;;;;5075177;28;20123;-70
2022/01/09 08:14:11;;;;;;;7.82;3.10;;;;;;;;;;5075166;28;20048;-72
2022/01/09 08:16:38;;;;;;;6.13;2.83;;;;;;;;;;5075388;28;20044;-76
2022/01/09 08:19:06;;;;;;;4.40;2.60;;;;;;;;;;5075268;28;20044;-75
2022/01/09 08:21:41;;;;;;;6.55;3.55;;;;;;;;;;5074664;28;20050;-70
2022/01/09 08:24:10;;;;;;;8.60;5.07;;;;;;;;;;5074948;28;20102;-76
2022/01/09 08:26:39;;;;;;;12.90;7.35;;;;;;;;;;5075060;28;20558;-76
2022/01/09 08:29:06;;;;;;;16.23;9.15;;;;;;;;;;5074859;28;20044;-77
2022/01/09 08:31:34;;;;;;;10.10;4.95;;;;;;;;;;5074967;28;20119;-76
2022/01/09 08:34:01;;;;;;;9.77;5.40;;;;;;;;;;5074568;28;20089;-77
2022/01/09 08:36:33;;;;;;;9.90;5.05;;;;;;;;;;5074364;28;20067;-72
2022/01/09 08:39:01;;;;;;;12.20;4.78;;;;;;;;;;5074855;28;20037;-70
2022/01/09 08:41:28;;;;;;;9.48;3.40;;;;;;;;;;5074602;28;20526;-72
2022/01/09 08:43:56;;;;;;;15.40;3.85;;;;;;;;;;5075017;28;20067;-71
2022/01/09 08:46:23;;;;;;;7.03;2.97;;;;;;;;;;5074608;28;20127;-77
2022/01/09 08:48:51;;;;;;;7.18;3.38;;;;;;;;;;5074236;28;20040;-75
2022/01/09 08:51:18;;;;;;;11.52;4.18;;;;;;;;;;5074319;28;20051;-77
2022/01/09 08:53:50;;;;;;;6.00;2.80;;;;;;;;;;5056522;28;20044;-71
2022/01/09 08:56:26;;;;;;;6.43;3.20;;;;;;;;;;5074225;28;20072;-75
2022/01/09 08:58:54;;;;;;;5.95;3.35;;;;;;;;;;5074159;28;20041;-77
2022/01/09 09:01:42;;;;;;;7.28;4.15;;;;;;;;;;5074235;28;20044;-77
2022/01/09 09:04:11;;;;;;;5.80;3.58;;;;;;;;;;5074501;28;20041;-77
2022/01/09 09:06:39;;;;;;;8.25;3.70;;;;;;;;;;5074254;28;20407;-72
2022/01/09 09:09:07;;;;;;;10.25;4.45;;;;;;;;;;5074424;28;20048;-72
2022/01/09 09:11:35;;;;;;;8.98;4.25;;;;;;;;;;5073915;28;20042;-73
2022/01/09 09:14:03;;;;;;;6.72;4.30;;;;;;;;;;5073561;28;20127;-71
2022/01/09 09:16:31;;;;;;;5.50;3.25;;;;;;;;;;5073925;28;20032;-77
2022/01/09 09:18:59;;;;;;;5.95;3.88;;;;;;;;;;5074149;28;20115;-75
2022/01/09 09:21:27;;;;;;;5.70;3.42;;;;;;;;;;5073860;28;20040;-72
2022/01/09 09:23:54;;;;;;;5.93;2.90;;;;;;;;;;5052301;28;20135;-75
2022/01/09 09:26:25;;;;;;;4.35;3.03;;;;;;;;;;5053983;28;20049;-71
2022/01/09 09:28:54;;;;;;;4.75;2.80;;;;;;;;;;5053616;28;20049;-76
2022/01/09 09:31:22;;;;;;;6.30;3.15;;;;;;;;;;5053695;28;20079;-71
2022/01/09 09:33:49;;;;;;;5.15;2.92;;;;;;;;;;5053359;28;20053;-75
2022/01/09 09:36:21;;;;;;;6.97;3.00;;;;;;;;;;5053233;28;20041;-76
2022/01/09 09:38:49;;;;;;;6.60;2.97;;;;;;;;;;5053587;28;20484;-77
2022/01/09 09:41:18;;;;;;;5.30;3.17;;;;;;;;;;5053710;28;20072;-72
2022/01/09 09:43:45;;;;;;;5.35;3.10;;;;;;;;;;5053391;28;20132;-73
2022/01/09 09:46:14;;;;;;;5.05;2.67;;;;;;;;;;5053520;28;20095;-71
2022/01/09 09:48:42;;;;;;;8.45;2.90;;;;;;;;;;5053430;28;20407;-73
2022/01/09 09:51:10;;;;;;;11.00;2.60;;;;;;;;;;5053357;28;20068;-75
2022/01/09 09:53:38;;;;;;;3.45;2.20;;;;;;;;;;5053296;28;20037;-77
2022/01/09 09:56:05;;;;;;;3.55;2.33;;;;;;;;;;5053227;28;20055;-72
2022/01/09 09:58:34;;;;;;;6.32;2.17;;;;;;;;;;5052627;28;20091;-77
2022/01/09 10:01:02;;;;;;;4.25;2.10;;;;;;;;;;5052792;28;20500;-77
2022/01/09 10:03:32;;;;;;;3.88;2.22;;;;;;;;;;5053243;28;20563;-71
2022/01/09 10:06:00;;;;;;;5.03;2.75;;;;;;;;;;5053148;28;20055;-72
2022/01/09 10:08:35;;;;;;;3.88;2.13;;;;;;;;;;5053130;28;20051;-77
2022/01/09 10:11:13;;;;;;;3.17;1.75;;;;;;;;;;5052621;28;20060;-77
2022/01/09 10:13:42;;;;;;;4.07;2.28;;;;;;;;;;5053111;28;20095;-72
2022/01/09 10:16:10;;;;;;;3.05;2.10;;;;;;;;;;5052965;28;20049;-71
2022/01/09 10:18:39;;;;;;;4.47;2.17;;;;;;;;;;5052976;28;20067;-70
2022/01/09 10:21:08;;;;;;;4.07;1.92;;;;;;;;;;5052791;28;20041;-77
2022/01/09 10:23:36;;;;;;;5.22;2.50;;;;;;;;;;5033144;22;20535;-71
2022/01/09 10:26:11;;;;;;;4.65;2.13;;;;;;;;;;5012179;28;20041;-73
2022/01/09 10:28:39;;;;;;;4.45;2.45;;;;;;;;;;5008072;28;20046;-77
2022/01/09 10:31:16;;;;;;;3.53;2.10;;;;;;;;;;5012855;28;20046;-72
2022/01/09 10:33:57;;;;;;;5.07;2.25;;;;;;;;;;5013072;28;20133;-75
2022/01/09 10:36:33;;;;;;;4.35;1.92;;;;;;;;;;5012560;28;20183;-71
2022/01/09 10:39:09;;;;;;;5.43;1.85;;;;;;;;;;5013049;28;20058;-77
2022/01/09 10:41:57;;;;;;;3.55;2.08;;;;;;;;;;4994785;28;20046;-72
2022/01/09 10:44:34;;;;;;;3.97;2.20;;;;;;;;;;5012641;28;20050;-75
2022/01/09 10:47:09;;;;;;;2.63;2.00;;;;;;;;;;5012456;28;20458;-71
2022/01/09 10:49:36;;;;;;;4.40;2.60;;;;;;;;;;5012748;28;20500;-71
2022/01/09 10:52:21;;;;;;;4.28;2.47;;;;;;;;;;5012368;28;20038;-72
2022/01/09 10:54:51;;;;;;;4.82;2.47;;;;;;;;;;5012523;28;20041;-77
2022/01/09 10:57:20;;;;;;;5.53;2.60;;;;;;;;;;4994947;28;20042;-72
2022/01/09 10:59:47;;;;;;;6.15;3.85;;;;;;;;;;5012352;28;20042;-75
2022/01/09 11:02:16;;;;;;;2.85;1.65;;;;;;;;;;5012600;28;20080;-70
2022/01/09 11:04:45;;;;;;;4.13;2.13;;;;;;;;;;5012597;28;20050;-75
2022/01/09 11:07:14;;;;;;;5.43;1.90;;;;;;;;;;5012524;28;20547;-72
2022/01/09 11:09:45;;;;;;;6.93;2.35;;;;;;;;;;5011147;28;20115;-70
2022/01/09 11:12:17;;;;;;;7.28;1.95;;;;;;;;;;5012301;28;20085;-72
2022/01/09 11:14:49;;;;;;;4.18;2.00;;;;;;;;;;5012623;28;20068;-77
2022/01/09 11:17:21;;;;;;;7.80;1.83;;;;;;;;;;5012348;28;20049;-74
2022/01/09 11:19:49;;;;;;;6.47;1.95;;;;;;;;;;5011830;28;20489;-76
2022/01/09 11:22:19;;;;;;;4.78;1.90;;;;;;;;;;5011929;28;20038;-71
2022/01/09 11:25:02;;;;;;;4.50;2.92;;;;;;;;;;5012052;28;20046;-72
2022/01/09 11:27:43;;;;;;;5.60;1.55;;;;;;;;;;5012372;28;20053;-76
2022/01/09 11:30:17;;;;;;;4.70;1.48;;;;;;;;;;5012571;28;20038;-71
2022/01/09 11:32:49;;;;;;;4.63;1.80;;;;;;;;;;5012293;28;20089;-75
2022/01/09 11:35:19;;;;;;;4.72;2.22;;;;;;;;;;5011848;28;20046;-77
2022/01/09 11:38:08;;;;;;;4.00;1.75;;;;;;;;;;5015556;28;20041;-75
2022/01/09 11:40:38;;;;;;;6.93;1.75;;;;;;;;;;5015692;28;20062;-77
2022/01/09 11:43:08;;;;;;;5.38;1.55;;;;;;;;;;5016076;28;20481;-77
2022/01/09 11:45:58;;;;;;;1.75;1.55;;;;;;;;;;5015778;28;20473;-75
2022/01/09 11:48:45;;;;;;;5.68;1.20;;;;;;;;;;5015283;28;20386;-74
2022/01/09 11:51:13;;;;;;;6.00;1.45;;;;;;;;;;5015341;28;20077;-71
2022/01/09 11:53:56;;;;;;;1.50;1.40;;;;;;;;;;5015762;28;20038;-74
2022/01/09 11:56:42;;;;;;;3.72;1.98;;;;;;;;;;5015710;28;20057;-70
2022/01/09 11:59:17;;;;;;;6.63;1.58;;;;;;;;;;5015210;28;20046;-77
2022/01/09 12:01:52;;;;;;;2.28;1.33;;;;;;;;;;5015701;28;20049;-75
2022/01/09 12:04:35;;;;;;;2.00;1.40;;;;;;;;;;5015723;28;20049;-77
2022/01/09 12:07:08;;;;;;;3.17;1.30;;;;;;;;;;5015340;28;20560;-70
2022/01/09 12:09:35;;;;;;;;;;;;;;;;;;5015976;28;20042;-71
2022/01/09 12:12:04;;;;;;;4.35;1.98;;;;;;;;;;5014944;28;20441;-76
2022/01/09 12:15:09;;;;;;;3.08;2.03;;;;;;;;;;5015390;28;20069;-71
2022/01/09 12:17:41;;;;;;;7.75;1.63;;;;;;;;;;5015248;28;20046;-76
2022/01/09 12:20:13;;;;;;;6.10;2.28;;;;;;;;;;5015599;28;20042;-74
2022/01/09 12:22:53;;;;;;;3.67;1.30;;;;;;;;;;5002795;28;20057;-70
2022/01/09 12:25:24;;;;;;;3.67;1.50;;;;;;;;;;5017129;28;20101;-74
2022/01/09 12:27:57;;;;;;;2.50;1.65;;;;;;;;;;5034858;28;20041;-76
2022/01/09 12:30:33;;;;;;;2.30;1.30;;;;;;;;;;5017305;28;20123;-74
2022/01/09 12:33:05;;;;;;;3.22;1.15;;;;;;;;;;5034919;28;20396;-71
2022/01/09 12:35:34;;;;;;;5.47;1.40;;;;;;;;;;5034704;28;20034;-76
2022/01/09 12:38:02;;;;;;;5.70;2.28;;;;;;;;;;5034813;28;20038;-74
2022/01/09 12:40:31;;;;;;;3.30;1.55;;;;;;;;;;5034673;28;20045;-69
2022/01/09 12:43:00;;;;;;;4.50;1.40;;;;;;;;;;5035010;28;20124;-70
2022/01/09 12:45:29;;;;;;;4.63;2.08;;;;;;;;;;5034811;28;20037;-76
2022/01/09 12:47:57;;;;;;;6.25;2.80;;;;;;;;;;5033479;28;20496;-73
2022/01/09 12:50:32;;;;;;;4.13;1.98;;;;;;;;;;5034733;28;20056;-70
2022/01/09 12:53:13;;;;;;;3.35;1.42;;;;;;;;;;5034611;28;20062;-74
2022/01/09 12:55:56;;;;;;;5.75;1.95;;;;;;;;;;5034364;28;20103;-75
2022/01/09 12:58:26;;;;;;;3.17;1.40;;;;;;;;;;5034319;28;20095;-74
2022/01/09 13:00:54;;;;;;;4.53;1.52;;;;;;;;;;5034178;28;20041;-74
2022/01/09 13:03:24;;;;;;;5.13;1.75;;;;;;;;;;5034461;28;20041;-69
2022/01/09 13:05:57;;;;;;;4.85;1.63;;;;;;;;;;5034328;28;20075;-76
2022/01/09 13:08:25;;;;;;;2.67;1.20;;;;;;;;;;5034484;28;20037;-71
2022/01/09 13:11:01;;;;;;;3.90;1.23;;;;;;;;;;5016726;28;20029;-76
2022/01/09 13:13:29;;;;;;;5.13;1.50;;;;;;;;;;5033609;28;20485;-71
2022/01/09 13:15:57;;;;;;;3.83;1.42;;;;;;;;;;5016581;28;20489;-70
2022/01/09 13:18:43;;;;;;;5.07;1.48;;;;;;;;;;5034118;28;20049;-76
2022/01/09 13:21:11;;;;;;;4.13;1.50;;;;;;;;;;5033998;28;20046;-69
2022/01/09 13:23:54;;;;;;;4.85;1.50;;;;;;;;;;5020291;28;20050;-70
2022/01/09 13:26:22;;;;;;;5.82;1.33;;;;;;;;;;4996913;28;20046;-69
2022/01/09 13:28:52;;;;;;;3.20;1.73;;;;;;;;;;5013310;28;20065;-76
2022/01/09 13:31:21;;;;;;;3.53;1.27;;;;;;;;;;5013885;28;20088;-69
2022/01/09 13:33:50;;;;;;;4.07;1.30;;;;;;;;;;4996777;28;20577;-75
2022/01/09 13:36:50;;;;;;;2.83;1.35;;;;;;;;;;5013766;28;20034;-70
2022/01/09 13:39:18;;;;;;;6.65;1.73;;;;;;;;;;4981606;28;20141;-74
2022/01/09 13:41:51;;;;;;;1.50;0.98;;;;;;;;;;5013726;28;20046;-70
2022/01/09 13:44:29;;;;;;;7.22;1.50;;;;;;;;;;5013843;28;20560;-76
2022/01/09 13:47:09;;;;;;;6.53;1.50;;;;;;;;;;5013726;28;20457;-76
2022/01/09 13:49:38;;;;;;;3.85;1.25;;;;;;;;;;5013558;28;20056;-76
2022/01/09 13:52:19;;;;;;;4.15;1.50;;;;;;;;;;4996211;28;20054;-74
2022/01/09 13:55:01;;;;;;;4.45;1.63;;;;;;;;;;5013714;28;20038;-70
2022/01/09 13:57:30;;;;;;;8.00;1.60;;;;;;;;;;5013527;28;20501;-74
2022/01/09 14:00:03;;;;;;;3.85;1.30;;;;;;;;;;5013340;28;20405;-76
2022/01/09 14:02:41;;;;;;;5.20;1.90;;;;;;;;;;5013485;28;20421;-71
2022/01/09 14:05:34;;;;;;;3.97;1.15;;;;;;;;;;5013148;28;20069;-69
2022/01/09 14:08:03;;;;;;;3.10;0.90;;;;;;;;;;5013071;28;20092;-70
2022/01/09 14:10:40;;;;;;;4.45;1.23;;;;;;;;;;5011431;28;20049;-77
2022/01/09 14:13:12;;;;;;;4.72;1.10;;;;;;;;;;5008188;28;20112;-69
2022/01/09 14:15:40;;;;;;;3.70;1.73;;;;;;;;;;5021816;28;20045;-77
2022/01/09 14:18:23;;;;;;;2.72;0.98;;;;;;;;;;4994342;28;20042;-70
2022/01/09 14:21:05;;;;;;;7.15;1.00;;;;;;;;;;5012396;28;20030;-71
2022/01/09 14:23:35;;;;;;;5.90;1.38;;;;;;;;;;5024308;28;20512;-70
2022/01/09 14:26:11;;;;;;;5.90;0.98;;;;;;;;;;5032417;28;20045;-72
2022/01/09 14:28:39;;;;;;;7.18;1.52;;;;;;;;;;5032752;28;20042;-77
2022/01/09 14:31:15;;;;;;;4.53;1.05;;;;;;;;;;5032414;28;20481;-71
2022/01/09 14:33:50;;;;;;;2.95;1.48;;;;;;;;;;5013096;28;20056;-78
2022/01/09 14:36:26;;;;;;;3.75;0.95;;;;;;;;;;5012555;28;20042;-77
2022/01/09 14:38:58;;;;;;;5.95;1.30;;;;;;;;;;5012689;28;20448;-77
2022/01/09 14:41:27;;;;;;;3.63;1.15;;;;;;;;;;5012885;28;20108;-70
2022/01/09 14:43:55;;;;;;;6.70;1.27;;;;;;;;;;5012311;28;20034;-69
2022/01/09 14:46:23;;;;;;;5.05;1.40;;;;;;;;;;5011910;28;20096;-77
2022/01/09 14:48:51;;;;;;;4.88;1.10;;;;;;;;;;4994925;28;20474;-71
2022/01/09 14:51:20;;;;;;;4.43;1.40;;;;;;;;;;5008595;28;20038;-77
2022/01/09 14:53:50;;;;;;;3.35;1.13;;;;;;;;;;5011989;28;20130;-72
2022/01/09 14:56:21;;;;;;;6.22;0.98;;;;;;;;;;4994609;28;20129;-71
2022/01/09 14:58:50;;;;;;;6.70;1.27;;;;;;;;;;5012073;28;20056;-72
2022/01/09 15:01:18;;;;;;;8.60;3.50;;;;;;;;;;4994788;28;20042;-78
2022/01/09 15:03:46;;;;;;;3.55;1.17;;;;;;;;;;5012493;28;20048;-73
2022/01/09 15:06:16;;;;;;;7.78;2.08;;;;;;;;;;5012281;28;20072;-73